Terminal Aerodrome Forecast
Issued by NWS Portland, ME

Home | Current Version | Previous Version | Text Only | Print | Product List | Glossary On
Versions: 1 2 3 4 5 6 7 8 9 10 11 12 13 14 15 16 17
000
FTUS41 KGYX 121013 AAB
TAFPWM
TAF AMD
KPWM 121013Z 1210/1306 VRB03KT P6SM BKN050
      TEMPO 1210/1214 1SM -SN OVC015
     FM121400 10007KT 1/2SM SN OVC008
     FM121700 11009KT 3SM RA OVC008
     FM130000 14005KT P6SM OVC003=

USA.gov is the U.S. government's official web portal to all federal, state and local government web resources and services.